KPNE/PNE METAR and TAF weather

Enter ICAO airport designator
Station Type Date Time Source
KPNE METAR 2021/03/05 12:54 UTC NOAA

KPNE 051254Z 31013G24KT 10SM CLR M04/M15 A3002 RMK AO2 SLP166 T10391150


Station Type Date Time Source
KPNE Decoded METAR 2021/03/05 12:54 UTC NOAA

N.E. PHILADELPHIA AIRPORT, PA, United States (KPNE) 40-05N 075-01W 28M
Mar 05, 2021 - 07:54 AM EST / 2021.03.05 1254 UTC
Wind: from the NW (310 degrees) at 15 MPH (13 KT) gusting to 28 MPH (24 KT):0
Visibility: 10 mile(s):0
Sky conditions: clear
Temperature: 25.0 F (-3.9 C)
Windchill: 12 F (-11 C):1
Dew Point: 5.0 F (-15.0 C)
Relative Humidity: 41%
Pressure (altimeter): 30.02 in. Hg (1016 hPa)
ob: KPNE 051254Z 31013G24KT 10SM CLR M04/M15 A3002 RMK AO2 SLP166 T10391150
cycle: 13

Station Type Date Time Source
KPNE TAF 2021/03/05 12:22 UTC NOAA

TAF KPNE 051120Z 0512/0612 32012G22KT P6SM SKC
FM051400 30016G26KT P6SM SKC
FM052300 30009KT P6SM SKC

Example: see airport list